Main page
METAR-TAF:

METAR-TAF

Airports :

Ouarzazate Airport

Ouarzazate, Morocco

latitude: 30-56N, longitude: 006-54W, elevation: 1139 m

Current weather observation

The report was made 38 minutes ago, at 05:00 UTC
Wind 5 kt from the West/Northwest
Temperature 20°C
Humidity 18%
Pressure 1018 hPa
Visibility 10 km or more
no clouds below 1500 m and no cumulonimbus

METAR: GMMZ 210500Z 29005KT CAVOK 20/M05 Q1018 NOSIG

Time: 06:38 (05:38 UTC)

Forecast

The report was made 6 hours and 38 minutes ago, at 23:00 UTC
Forecast valid from 21 at 00 UTC to 22 at 06 UTC
Wind 7 kt from the West
Visibility 10 km or more
no clouds below 1500 m and no cumulonimbus

TAF: GMMZ 202300Z 2100/2206 26007KT CAVOK

Weather observations and forecasts of more than 4000 airports (METAR and TAF reports).

The available stations are represented by yellow and red dots on the map.

Hover mouse over dot to see the name of the station.

Then click to see weather observations and forecasts.

To change the map : click on the green buttons with a black cross to zoom in, on the green button with a dash to zoom out, or on the green arrows for adjacent maps.


METAR-TAF: